Time;durP1;ratioP1;P1;durP2;ratioP2;P2;SDS_P1;SDS_P2;PMS_P1;PMS_P2;Temp;Humidity;BMP_temperature;BMP_pressure;BME280_temperature;BME280_humidity;BME280_pressure;Samples;Min_cycle;Max_cycle;Signal;HPM_P1;HPM_P2
2021/01/23 00:01:46;;;;;;;0.20;0.20;;;;;;;;;;5021764;28;20203;-78
2021/01/23 00:04:12;;;;;;;0.30;0.30;;;;;;;;;;5016926;28;20207;-78
2021/01/23 00:06:38;;;;;;;0.50;0.30;;;;;;;;;;5017041;28;20259;-78
2021/01/23 00:09:07;;;;;;;0.20;0.20;;;;;;;;;;5015762;28;20185;-78
2021/01/23 00:11:33;;;;;;;0.23;0.23;;;;;;;;;;5007197;28;20195;-78
2021/01/23 00:13:59;;;;;;;0.40;0.40;;;;;;;;;;5011722;28;20276;-78
2021/01/23 00:16:25;;;;;;;0.50;0.40;;;;;;;;;;5019762;28;20187;-77
2021/01/23 00:18:55;;;;;;;0.20;0.20;;;;;;;;;;5019399;28;20579;-79
2021/01/23 00:21:21;;;;;;;0.40;0.40;;;;;;;;;;5020556;28;20203;-80
2021/01/23 00:23:47;;;;;;;0.40;0.40;;;;;;;;;;5020536;28;20666;-78
2021/01/23 00:26:13;;;;;;;0.27;0.27;;;;;;;;;;5000790;28;20179;-79
2021/01/23 00:28:39;;;;;;;0.30;0.30;;;;;;;;;;5016681;28;20175;-78
2021/01/23 00:31:05;;;;;;;0.20;0.20;;;;;;;;;;5016865;28;20561;-78
2021/01/23 00:33:32;;;;;;;0.30;0.30;;;;;;;;;;5016513;28;20246;-78
2021/01/23 00:35:58;;;;;;;0.43;0.37;;;;;;;;;;5018323;28;20203;-77
2021/01/23 00:38:24;;;;;;;0.53;0.30;;;;;;;;;;5016385;28;20263;-76
2021/01/23 00:40:50;;;;;;;0.33;0.33;;;;;;;;;;5016156;28;20581;-77
2021/01/23 00:43:16;;;;;;;0.20;0.20;;;;;;;;;;5016318;28;20249;-77
2021/01/23 00:45:42;;;;;;;0.30;0.30;;;;;;;;;;5016186;28;20187;-77
2021/01/23 00:48:12;;;;;;;0.27;0.27;;;;;;;;;;5013345;28;20514;-77
2021/01/23 00:50:39;;;;;;;0.50;0.40;;;;;;;;;;4998971;28;20187;-77
2021/01/23 00:53:05;;;;;;;0.20;0.20;;;;;;;;;;5012914;28;20180;-77
2021/01/23 00:55:32;;;;;;;0.53;0.33;;;;;;;;;;5016363;28;20206;-77
2021/01/23 00:57:58;;;;;;;0.50;0.50;;;;;;;;;;5016340;28;20175;-77
2021/01/23 01:00:25;;;;;;;1.10;0.77;;;;;;;;;;5016003;28;20657;-75
2021/01/23 01:02:51;;;;;;;1.03;0.73;;;;;;;;;;5016135;28;20203;-77
2021/01/23 01:05:18;;;;;;;0.77;0.63;;;;;;;;;;5015881;28;20658;-78
2021/01/23 01:07:44;;;;;;;0.50;0.50;;;;;;;;;;5018277;28;20179;-78
2021/01/23 01:10:10;;;;;;;0.50;0.40;;;;;;;;;;5019512;28;20187;-78
2021/01/23 01:12:37;;;;;;;0.40;0.40;;;;;;;;;;4996509;28;20215;-79
2021/01/23 01:15:04;;;;;;;0.40;0.40;;;;;;;;;;4984904;28;20653;-77
2021/01/23 01:17:30;;;;;;;0.40;0.40;;;;;;;;;;4998163;28;20656;-77
2021/01/23 01:19:55;;;;;;;0.93;0.60;;;;;;;;;;5015616;28;20179;-78
2021/01/23 01:22:22;;;;;;;0.40;0.40;;;;;;;;;;5014850;28;20234;-77
2021/01/23 01:24:48;;;;;;;0.50;0.50;;;;;;;;;;5031911;28;20197;-77
2021/01/23 01:27:14;;;;;;;0.83;0.60;;;;;;;;;;5021553;28;20182;-78
2021/01/23 01:29:40;;;;;;;0.50;0.50;;;;;;;;;;5015456;28;20654;-78
2021/01/23 01:32:07;;;;;;;0.70;0.70;;;;;;;;;;4998187;28;20537;-78
2021/01/23 01:34:33;;;;;;;0.70;0.70;;;;;;;;;;5015393;28;20225;-78
2021/01/23 01:37:00;;;;;;;0.87;0.87;;;;;;;;;;5015624;28;20660;-78
2021/01/23 01:39:26;;;;;;;1.10;0.90;;;;;;;;;;5015563;28;20184;-78
2021/01/23 01:41:52;;;;;;;1.67;1.30;;;;;;;;;;5005907;28;20231;-78
2021/01/23 01:44:18;;;;;;;1.20;1.10;;;;;;;;;;5023394;28;20613;-78
2021/01/23 01:46:45;;;;;;;1.00;1.00;;;;;;;;;;4995586;28;20180;-78
2021/01/23 01:49:11;;;;;;;0.90;0.90;;;;;;;;;;5013023;28;20226;-78
2021/01/23 01:51:37;;;;;;;0.90;0.90;;;;;;;;;;4997609;28;20205;-77
2021/01/23 01:54:04;;;;;;;0.90;0.90;;;;;;;;;;5014915;28;20265;-79
2021/01/23 01:56:30;;;;;;;1.13;1.03;;;;;;;;;;5015002;28;20182;-78
2021/01/23 01:58:57;;;;;;;0.90;0.90;;;;;;;;;;5015033;28;20213;-78
2021/01/23 02:01:23;;;;;;;0.90;0.90;;;;;;;;;;4997276;28;20290;-78
2021/01/23 02:03:55;;;;;;;1.10;1.10;;;;;;;;;;5015672;28;20188;-77
2021/01/23 02:06:25;;;;;;;1.17;0.80;;;;;;;;;;5015111;28;20190;-78
2021/01/23 02:08:55;;;;;;;1.30;1.10;;;;;;;;;;5014732;28;20175;-78
2021/01/23 02:11:30;;;;;;;1.20;1.20;;;;;;;;;;4997201;28;20309;-78
2021/01/23 02:14:15;;;;;;;1.07;1.07;;;;;;;;;;5014916;28;20207;-78
2021/01/23 02:16:44;;;;;;;1.07;1.07;;;;;;;;;;4997409;28;20707;-78
2021/01/23 02:19:16;;;;;;;1.00;1.00;;;;;;;;;;5014692;28;20187;-77
2021/01/23 02:21:51;;;;;;;1.10;1.10;;;;;;;;;;5014896;28;20560;-78
2021/01/23 02:24:23;;;;;;;1.00;0.90;;;;;;;;;;5014574;28;20207;-78
2021/01/23 02:26:54;;;;;;;0.90;0.90;;;;;;;;;;5014878;28;20179;-78
2021/01/23 02:29:27;;;;;;;0.90;0.90;;;;;;;;;;5006805;28;20174;-77
2021/01/23 02:31:55;;;;;;;0.90;0.90;;;;;;;;;;5014543;28;20179;-78
2021/01/23 02:34:23;;;;;;;1.07;0.93;;;;;;;;;;5013712;28;20222;-78
2021/01/23 02:36:50;;;;;;;0.80;0.80;;;;;;;;;;5014275;28;20190;-78
2021/01/23 02:39:17;;;;;;;0.60;0.60;;;;;;;;;;5014654;28;20230;-77
2021/01/23 02:41:44;;;;;;;0.80;0.80;;;;;;;;;;5013969;28;20206;-78
2021/01/23 02:44:10;;;;;;;0.40;0.40;;;;;;;;;;5010067;28;20279;-78
2021/01/23 02:46:37;;;;;;;0.47;0.47;;;;;;;;;;5007248;28;20194;-77
2021/01/23 02:49:03;;;;;;;0.50;0.50;;;;;;;;;;5014582;28;20175;-78
2021/01/23 02:51:35;;;;;;;0.50;0.50;;;;;;;;;;5014367;28;20186;-77
2021/01/23 02:54:06;;;;;;;0.50;0.50;;;;;;;;;;5003183;28;20215;-78
2021/01/23 02:56:33;;;;;;;0.50;0.50;;;;;;;;;;5009494;28;20183;-79
2021/01/23 02:59:02;;;;;;;0.50;0.50;;;;;;;;;;5011890;28;20217;-79
2021/01/23 03:01:31;;;;;;;0.30;0.30;;;;;;;;;;5012100;28;20195;-79
2021/01/23 03:03:58;;;;;;;0.40;0.40;;;;;;;;;;5013221;28;20666;-78
2021/01/23 03:06:24;;;;;;;0.40;0.40;;;;;;;;;;5018976;28;20175;-77
2021/01/23 03:08:51;;;;;;;0.50;0.50;;;;;;;;;;5010811;28;20189;-78
2021/01/23 03:11:17;;;;;;;0.60;0.60;;;;;;;;;;5011701;28;20186;-78
2021/01/23 03:13:43;;;;;;;0.50;0.50;;;;;;;;;;5013749;28;20213;-78
2021/01/23 03:16:10;;;;;;;0.60;0.60;;;;;;;;;;5013996;28;20268;-78
2021/01/23 03:18:36;;;;;;;0.40;0.40;;;;;;;;;;5014091;28;20186;-78
2021/01/23 03:21:02;;;;;;;0.70;0.70;;;;;;;;;;5014137;28;20207;-78
2021/01/23 03:23:28;;;;;;;0.53;0.53;;;;;;;;;;4996819;28;20209;-78
2021/01/23 03:25:54;;;;;;;0.70;0.70;;;;;;;;;;5013911;28;20227;-78
2021/01/23 03:28:21;;;;;;;0.50;0.50;;;;;;;;;;5014021;28;20179;-78
2021/01/23 03:30:47;;;;;;;0.70;0.70;;;;;;;;;;5014185;28;20592;-78
2021/01/23 03:33:13;;;;;;;1.03;1.00;;;;;;;;;;5013874;28;20543;-77
2021/01/23 03:35:39;;;;;;;0.70;0.70;;;;;;;;;;5013738;28;20664;-78
2021/01/23 03:38:06;;;;;;;0.73;0.73;;;;;;;;;;5013889;28;20256;-79
2021/01/23 03:40:32;;;;;;;0.90;0.90;;;;;;;;;;5013577;28;20182;-78
2021/01/23 03:42:59;;;;;;;1.30;1.20;;;;;;;;;;5013977;28;20206;-78
2021/01/23 03:45:25;;;;;;;1.10;1.00;;;;;;;;;;5013801;28;20195;-78
2021/01/23 03:47:51;;;;;;;1.10;1.10;;;;;;;;;;5000230;28;20179;-78
2021/01/23 03:50:17;;;;;;;1.40;1.30;;;;;;;;;;5018376;28;20190;-78
2021/01/23 03:52:44;;;;;;;1.70;1.60;;;;;;;;;;5017854;28;20660;-78
2021/01/23 03:55:10;;;;;;;1.40;1.30;;;;;;;;;;5018008;28;20202;-78
2021/01/23 03:57:37;;;;;;;1.23;1.20;;;;;;;;;;5018150;28;20189;-78
2021/01/23 04:00:05;;;;;;;1.27;1.27;;;;;;;;;;5018059;28;20185;-78
2021/01/23 04:02:31;;;;;;;1.70;1.60;;;;;;;;;;5017938;28;20205;-78
2021/01/23 04:04:58;;;;;;;1.73;1.63;;;;;;;;;;5017728;28;20638;-78
2021/01/23 04:07:24;;;;;;;1.70;1.60;;;;;;;;;;5017972;28;20595;-78
2021/01/23 04:09:50;;;;;;;2.07;1.93;;;;;;;;;;5023033;28;20688;-78
2021/01/23 04:12:16;;;;;;;2.37;2.20;;;;;;;;;;5008462;28;20187;-78
2021/01/23 04:14:43;;;;;;;2.30;2.20;;;;;;;;;;5017817;28;20614;-78
2021/01/23 04:17:09;;;;;;;2.10;1.90;;;;;;;;;;5017701;28;20246;-78
2021/01/23 04:19:35;;;;;;;2.20;2.00;;;;;;;;;;4999980;28;20654;-78
2021/01/23 04:22:01;;;;;;;2.40;2.20;;;;;;;;;;5018116;28;20218;-78
2021/01/23 04:24:28;;;;;;;2.00;1.90;;;;;;;;;;5017430;28;20207;-78
2021/01/23 04:26:54;;;;;;;1.93;1.73;;;;;;;;;;5017730;28;20206;-79
2021/01/23 04:29:20;;;;;;;2.43;2.00;;;;;;;;;;5000968;28;20310;-78
2021/01/23 04:31:49;;;;;;;1.77;1.67;;;;;;;;;;5017651;28;20254;-78
2021/01/23 04:34:15;;;;;;;2.57;2.00;;;;;;;;;;5017123;28;20218;-78
2021/01/23 04:36:42;;;;;;;2.80;2.30;;;;;;;;;;5017673;28;20183;-78
2021/01/23 04:39:08;;;;;;;2.40;2.20;;;;;;;;;;4999969;28;20193;-78
2021/01/23 04:41:34;;;;;;;2.80;2.60;;;;;;;;;;5013538;28;20199;-79
2021/01/23 04:44:00;;;;;;;2.70;2.50;;;;;;;;;;5019376;28;20204;-78
2021/01/23 04:46:26;;;;;;;3.00;2.80;;;;;;;;;;4994465;28;20270;-78
2021/01/23 04:48:53;;;;;;;2.77;2.10;;;;;;;;;;5016818;28;20664;-78
2021/01/23 04:51:19;;;;;;;2.93;2.70;;;;;;;;;;5017506;28;20180;-78
2021/01/23 04:53:46;;;;;;;3.00;2.80;;;;;;;;;;5016735;28;20187;-78
2021/01/23 04:56:12;;;;;;;3.23;3.03;;;;;;;;;;4994238;28;20187;-78
2021/01/23 04:58:38;;;;;;;2.83;2.63;;;;;;;;;;4991087;28;20559;-78
2021/01/23 05:01:04;;;;;;;3.27;2.97;;;;;;;;;;4994977;28;20195;-78
2021/01/23 05:03:30;;;;;;;3.13;2.90;;;;;;;;;;5015407;28;20190;-78
2021/01/23 05:06:06;;;;;;;3.60;3.30;;;;;;;;;;4994226;28;20211;-78
2021/01/23 05:08:36;;;;;;;3.30;3.10;;;;;;;;;;5016730;28;20216;-78
2021/01/23 05:11:02;;;;;;;4.23;3.37;;;;;;;;;;5015159;28;20257;-78
2021/01/23 05:13:29;;;;;;;3.97;3.57;;;;;;;;;;5009903;28;20267;-78
2021/01/23 05:15:55;;;;;;;3.83;3.47;;;;;;;;;;5010067;28;20203;-78
2021/01/23 05:18:22;;;;;;;4.60;4.20;;;;;;;;;;5016759;28;20184;-78
2021/01/23 05:20:52;;;;;;;4.13;3.83;;;;;;;;;;5016508;28;20262;-78
2021/01/23 05:23:21;;;;;;;4.53;4.13;;;;;;;;;;5016478;28;20175;-78
2021/01/23 05:25:49;;;;;;;4.40;4.03;;;;;;;;;;5016085;28;20327;-78
2021/01/23 05:28:25;;;;;;;4.17;3.87;;;;;;;;;;5016145;28;20510;-78
2021/01/23 05:30:52;;;;;;;4.50;4.20;;;;;;;;;;5016756;28;20185;-78
2021/01/23 05:33:27;;;;;;;5.00;4.60;;;;;;;;;;5016156;28;20262;-78
2021/01/23 05:36:06;;;;;;;6.83;4.17;;;;;;;;;;5015650;28;20229;-78
2021/01/23 05:38:33;;;;;;;4.57;4.17;;;;;;;;;;5016484;28;20191;-78
2021/01/23 05:41:09;;;;;;;5.10;4.30;;;;;;;;;;5015859;28;20229;-78
2021/01/23 05:43:37;;;;;;;5.27;4.77;;;;;;;;;;5015826;28;20662;-78
2021/01/23 05:46:14;;;;;;;6.70;4.47;;;;;;;;;;5010518;28;20314;-78
2021/01/23 05:48:44;;;;;;;5.70;4.13;;;;;;;;;;5015075;28;20185;-78
2021/01/23 05:51:10;;;;;;;4.97;4.23;;;;;;;;;;5027600;28;20208;-79
2021/01/23 05:53:37;;;;;;;5.30;4.90;;;;;;;;;;5027276;28;20183;-78
2021/01/23 05:56:03;;;;;;;5.00;4.57;;;;;;;;;;5029202;28;20179;-79
2021/01/23 05:58:30;;;;;;;5.10;4.70;;;;;;;;;;5020160;28;20211;-78
2021/01/23 06:00:57;;;;;;;4.80;3.90;;;;;;;;;;5027591;28;20183;-79
2021/01/23 06:03:23;;;;;;;4.73;4.23;;;;;;;;;;5040064;28;20339;-78
2021/01/23 06:05:54;;;;;;;4.13;3.83;;;;;;;;;;5029920;28;20198;-79
2021/01/23 06:08:36;;;;;;;4.70;4.27;;;;;;;;;;5016481;28;20546;-78
2021/01/23 06:11:02;;;;;;;4.40;4.00;;;;;;;;;;5016531;28;20550;-78
2021/01/23 06:13:36;;;;;;;5.00;4.17;;;;;;;;;;5016564;28;20179;-78
2021/01/23 06:16:02;;;;;;;4.23;3.93;;;;;;;;;;5016593;28;20244;-79
2021/01/23 06:18:29;;;;;;;3.80;3.50;;;;;;;;;;5016465;28;20183;-79
2021/01/23 06:20:56;;;;;;;3.93;3.63;;;;;;;;;;5016182;28;20179;-78
2021/01/23 06:23:23;;;;;;;4.27;3.87;;;;;;;;;;5015939;28;20253;-78
2021/01/23 06:25:49;;;;;;;6.00;4.43;;;;;;;;;;5016361;28;20199;-78
2021/01/23 06:28:18;;;;;;;4.90;4.50;;;;;;;;;;5015652;28;20212;-78
2021/01/23 06:30:45;;;;;;;6.67;4.90;;;;;;;;;;5016197;28;20182;-78
2021/01/23 06:33:23;;;;;;;7.80;4.90;;;;;;;;;;5013662;28;20266;-77
2021/01/23 06:36:04;;;;;;;6.20;4.93;;;;;;;;;;5033265;23;20222;-75
2021/01/23 06:38:31;;;;;;;5.80;5.30;;;;;;;;;;5033823;28;20198;-74
2021/01/23 06:40:57;;;;;;;6.23;5.10;;;;;;;;;;5032406;28;20162;-74
2021/01/23 06:43:23;;;;;;;5.80;5.30;;;;;;;;;;5033926;28;20174;-73
2021/01/23 06:45:49;;;;;;;7.40;5.53;;;;;;;;;;5032210;28;20552;-73
2021/01/23 06:48:15;;;;;;;6.03;5.30;;;;;;;;;;5033772;28;20171;-73
2021/01/23 06:50:42;;;;;;;5.17;4.67;;;;;;;;;;5015997;28;20174;-74
2021/01/23 06:53:21;;;;;;;5.07;4.57;;;;;;;;;;5033691;28;20649;-74
2021/01/23 06:55:50;;;;;;;5.17;4.50;;;;;;;;;;5016202;28;20236;-74
2021/01/23 06:58:17;;;;;;;5.00;4.03;;;;;;;;;;5012896;28;20182;-74
2021/01/23 07:00:44;;;;;;;4.43;4.03;;;;;;;;;;5015905;28;20182;-73
2021/01/23 07:03:12;;;;;;;4.60;4.20;;;;;;;;;;5034637;28;20194;-74
2021/01/23 07:05:45;;;;;;;4.93;4.43;;;;;;;;;;5034785;28;20240;-73
2021/01/23 07:08:28;;;;;;;4.50;4.20;;;;;;;;;;5035080;28;20162;-73
2021/01/23 07:11:08;;;;;;;5.87;4.77;;;;;;;;;;5016184;28;20224;-72
2021/01/23 07:13:34;;;;;;;5.37;4.27;;;;;;;;;;5033499;28;20178;-74
2021/01/23 07:16:00;;;;;;;4.60;4.20;;;;;;;;;;5033391;28;20206;-73
2021/01/23 07:18:27;;;;;;;4.70;4.30;;;;;;;;;;5033389;28;20178;-71
2021/01/23 07:20:55;;;;;;;4.77;4.27;;;;;;;;;;5032560;28;20195;-73
2021/01/23 07:23:21;;;;;;;5.13;4.60;;;;;;;;;;5015565;28;20181;-73
2021/01/23 07:25:50;;;;;;;4.80;4.40;;;;;;;;;;5033504;28;20273;-73
2021/01/23 07:28:17;;;;;;;5.73;4.87;;;;;;;;;;5033116;28;20170;-72
2021/01/23 07:30:43;;;;;;;6.40;5.20;;;;;;;;;;5015564;28;20178;-74
2021/01/23 07:33:11;;;;;;;5.07;4.53;;;;;;;;;;5033092;28;20175;-74
2021/01/23 07:35:37;;;;;;;5.50;5.07;;;;;;;;;;5033172;28;20205;-73
2021/01/23 07:38:04;;;;;;;5.33;4.90;;;;;;;;;;5033373;28;20611;-74
2021/01/23 07:40:32;;;;;;;6.67;5.13;;;;;;;;;;5033041;28;20170;-72
2021/01/23 07:43:02;;;;;;;5.10;4.70;;;;;;;;;;5033009;28;20189;-74
2021/01/23 07:45:28;;;;;;;4.80;4.40;;;;;;;;;;5033260;28;20170;-73
2021/01/23 07:47:58;;;;;;;7.83;5.40;;;;;;;;;;5033293;28;20178;-74
2021/01/23 07:50:25;;;;;;;4.93;4.53;;;;;;;;;;5032927;28;20179;-71
2021/01/23 07:52:51;;;;;;;5.50;5.10;;;;;;;;;;5033179;28;20182;-74
2021/01/23 07:55:18;;;;;;;5.43;4.93;;;;;;;;;;5032925;28;20189;-73
2021/01/23 07:58:04;;;;;;;6.87;5.20;;;;;;;;;;5032784;28;20656;-74
2021/01/23 08:00:30;;;;;;;6.53;5.97;;;;;;;;;;5033168;28;20182;-72
2021/01/23 08:02:58;;;;;;;7.30;5.50;;;;;;;;;;5014825;28;20202;-72
2021/01/23 08:05:40;;;;;;;6.73;5.97;;;;;;;;;;5033211;28;20233;-72
2021/01/23 08:08:07;;;;;;;6.13;5.53;;;;;;;;;;5031828;28;20182;-73
2021/01/23 08:10:36;;;;;;;8.53;7.43;;;;;;;;;;5031968;28;20273;-72
2021/01/23 08:13:04;;;;;;;8.17;6.60;;;;;;;;;;5032231;28;20174;-72
2021/01/23 08:15:31;;;;;;;7.00;6.33;;;;;;;;;;5032587;28;20174;-72
2021/01/23 08:17:58;;;;;;;6.17;5.43;;;;;;;;;;5032706;28;20266;-73
2021/01/23 08:20:31;;;;;;;6.13;5.53;;;;;;;;;;5033002;28;20179;-70
2021/01/23 08:23:02;;;;;;;5.63;5.13;;;;;;;;;;5032312;28;20203;-73
2021/01/23 08:25:29;;;;;;;6.93;6.23;;;;;;;;;;5030145;28;20257;-72
2021/01/23 08:27:56;;;;;;;5.57;5.07;;;;;;;;;;5031020;28;20225;-72
2021/01/23 08:30:23;;;;;;;5.73;5.27;;;;;;;;;;5032215;28;20269;-72
2021/01/23 08:32:53;;;;;;;5.97;5.47;;;;;;;;;;5016441;28;20174;-72
2021/01/23 08:35:20;;;;;;;5.10;4.70;;;;;;;;;;5036119;28;20174;-70
2021/01/23 08:37:46;;;;;;;5.17;4.30;;;;;;;;;;5036042;28;20193;-73
2021/01/23 08:40:13;;;;;;;4.43;4.13;;;;;;;;;;5036475;28;20579;-73
2021/01/23 08:42:39;;;;;;;4.20;3.90;;;;;;;;;;5036050;28;20194;-73
2021/01/23 08:45:05;;;;;;;4.87;4.47;;;;;;;;;;5036157;28;20533;-73
2021/01/23 08:47:32;;;;;;;4.87;4.17;;;;;;;;;;5036220;28;20194;-74
2021/01/23 08:49:58;;;;;;;5.33;4.80;;;;;;;;;;5036039;28;20174;-73
2021/01/23 08:52:24;;;;;;;5.33;4.90;;;;;;;;;;5033030;28;20671;-74
2021/01/23 08:54:50;;;;;;;4.80;4.40;;;;;;;;;;5036168;28;20175;-73
2021/01/23 08:57:16;;;;;;;3.83;3.53;;;;;;;;;;5035769;28;20282;-75
2021/01/23 08:59:43;;;;;;;4.70;4.30;;;;;;;;;;5035829;28;20206;-74
2021/01/23 09:02:10;;;;;;;4.40;4.10;;;;;;;;;;5035737;28;20202;-74
2021/01/23 09:04:37;;;;;;;4.60;4.20;;;;;;;;;;5035653;28;20194;-73
2021/01/23 09:07:03;;;;;;;4.43;4.13;;;;;;;;;;5032474;28;20286;-73
2021/01/23 09:09:29;;;;;;;5.17;4.70;;;;;;;;;;5035077;28;20210;-73
2021/01/23 09:11:55;;;;;;;4.30;4.00;;;;;;;;;;5017755;28;20269;-73
2021/01/23 09:14:21;;;;;;;4.80;4.40;;;;;;;;;;5035907;28;20233;-75
2021/01/23 09:16:47;;;;;;;4.80;4.40;;;;;;;;;;5035651;28;20236;-74
2021/01/23 09:19:13;;;;;;;8.73;5.17;;;;;;;;;;5032563;28;20194;-73
2021/01/23 09:21:39;;;;;;;5.27;4.77;;;;;;;;;;5026101;28;20206;-73
2021/01/23 09:24:08;;;;;;;7.17;5.37;;;;;;;;;;5031386;28;20270;-75
2021/01/23 09:26:34;;;;;;;4.83;4.43;;;;;;;;;;5015917;28;20692;-73
2021/01/23 09:29:00;;;;;;;5.30;4.60;;;;;;;;;;5034094;28;20650;-73
2021/01/23 09:31:26;;;;;;;5.60;5.10;;;;;;;;;;5016775;28;20171;-73
2021/01/23 09:33:52;;;;;;;5.57;4.57;;;;;;;;;;5034632;28;20549;-74
2021/01/23 09:36:18;;;;;;;4.43;4.10;;;;;;;;;;5017277;28;20807;-75
2021/01/23 09:38:44;;;;;;;5.30;4.83;;;;;;;;;;5034868;28;20300;-72
2021/01/23 09:41:11;;;;;;;5.03;3.70;;;;;;;;;;5017239;28;20252;-73
2021/01/23 09:43:37;;;;;;;3.27;3.03;;;3.30;99.90;;;;;;5034269;28;20610;-73
2021/01/23 09:46:03;;;;;;;3.43;3.13;;;3.20;99.90;;;;;;5017040;28;20227;-74
2021/01/23 09:48:28;;;;;;;4.27;3.23;;;3.20;99.90;;;;;;5035129;28;20179;-74
2021/01/23 09:50:54;;;;;;;3.23;2.93;;;3.20;99.90;;;;;;5017151;28;20170;-72
2021/01/23 09:53:20;;;;;;;5.47;3.00;;;3.20;99.90;;;;;;5034899;28;20240;-74
2021/01/23 09:55:45;;;;;;;3.37;3.07;;;3.20;99.90;;;;;;5017016;28;20210;-74
2021/01/23 09:58:11;;;;;;;3.30;3.10;;;3.30;99.90;;;;;;5000762;28;20191;-71
2021/01/23 10:00:38;;;;;;;3.77;3.47;;;3.30;99.90;;;;;;5035036;28;20182;-74
2021/01/23 10:03:04;;;;;;;4.50;3.10;;;3.30;99.90;;;;;;5034584;28;20581;-73
2021/01/23 10:05:30;;;;;;;3.03;2.70;;;3.30;99.90;;;;;;5016884;28;20179;-72
2021/01/23 10:07:57;;;;;;;2.90;2.57;;;3.30;99.90;;;;;;5034207;28;20178;-74
2021/01/23 10:10:22;;;;;;;2.80;2.60;;;3.40;99.90;;;;;;5016907;28;20235;-74
2021/01/23 10:12:48;;;;;;;3.80;3.50;;;3.30;99.90;;;;;;5034430;28;20174;-75
2021/01/23 10:15:14;;;;;;;3.93;3.27;;;3.30;99.90;;;;;;5034843;28;20188;-75
2021/01/23 10:17:40;;;;;;;4.13;3.73;;;3.30;99.90;;;;;;5034158;28;20206;-75
2021/01/23 10:20:07;;;;;;;6.60;3.93;;;3.30;99.90;;;;;;5016395;28;20187;-72
2021/01/23 10:22:33;;;;;;;4.37;3.27;;;3.40;99.90;;;;;;5034426;28;20211;-72
2021/01/23 10:24:59;;;;;;;3.57;3.27;;;3.40;99.90;;;;;;5033495;28;20584;-75
2021/01/23 10:27:25;;;;;;;4.43;3.20;;;3.50;99.90;;;;;;5031235;28;20204;-74
2021/01/23 10:29:53;;;;;;;3.57;2.67;;;3.50;99.90;;;;;;5016006;28;20556;-73
2021/01/23 10:32:19;;;;;;;3.80;3.50;;;3.50;99.90;;;;;;5034047;28;20760;-74
2021/01/23 10:34:44;;;;;;;3.80;3.50;;;3.60;99.90;;;;;;5033898;28;20257;-75
2021/01/23 10:37:10;;;;;;;3.80;3.23;;;3.60;99.90;;;;;;5021295;28;20301;-74
2021/01/23 10:39:36;;;;;;;3.23;3.00;;;3.60;99.90;;;;;;5033363;28;20179;-74
2021/01/23 10:42:03;;;;;;;3.37;2.70;;;3.60;99.90;;;;;;5033166;28;20205;-74
2021/01/23 10:44:28;;;;;;;3.00;2.70;;;3.70;99.90;;;;;;5034381;28;20230;-73
2021/01/23 10:46:54;;;;;;;3.23;3.00;;;3.70;99.90;;;;;;5033711;28;20199;-73
2021/01/23 10:49:20;;;;;;;3.63;3.33;;;3.70;99.90;;;;;;5033778;28;20575;-73
2021/01/23 10:51:46;;;;;;;4.30;3.40;;;3.70;99.90;;;;;;5025213;28;20668;-74
2021/01/23 10:54:11;;;;;;;3.73;3.07;;;3.70;99.90;;;;;;5013273;28;20179;-74
2021/01/23 10:56:38;;;;;;;3.10;2.90;;;3.80;99.90;;;;;;5015363;28;20297;-73
2021/01/23 10:59:04;;;;;;;3.37;3.10;;;3.80;99.90;;;;;;5033970;28;20186;-74
2021/01/23 11:01:33;;;;;;;3.73;3.10;;;3.80;99.90;;;;;;5015842;28;20691;-74
2021/01/23 11:04:00;;;;;;;3.40;3.10;;;3.80;99.90;;;;;;5033723;28;20183;-74
2021/01/23 11:06:25;;;;;;;2.80;2.60;;;3.80;99.90;;;;;;5033510;28;20245;-73
2021/01/23 11:08:51;;;;;;;2.70;2.50;;;3.80;99.90;;;;;;5033761;28;20185;-74
2021/01/23 11:11:17;;;;;;;3.47;2.83;;;3.80;99.90;;;;;;5016112;28;20170;-75
2021/01/23 11:13:43;;;;;;;3.20;2.83;;;3.70;99.90;;;;;;5026195;28;20182;-74
2021/01/23 11:16:10;;;;;;;4.80;3.10;;;3.80;99.90;;;;;;5033457;28;20281;-74
2021/01/23 11:18:36;;;;;;;3.33;3.03;;;3.70;99.90;;;;;;5033316;28;20174;-74
2021/01/23 11:21:04;;;;;;;3.33;2.70;;;3.80;99.90;;;;;;5033519;28;20343;-73
2021/01/23 11:23:30;;;;;;;6.67;3.27;;;3.80;99.90;;;;;;5033264;28;20175;-75
2021/01/23 11:25:56;;;;;;;3.57;3.27;;;3.80;99.90;;;;;;5015478;28;20208;-73
2021/01/23 11:28:22;;;;;;;2.77;2.37;;;3.90;99.90;;;;;;5033495;28;20175;-74
2021/01/23 11:30:49;;;;;;;2.73;2.53;;;4.00;99.90;;;;;;5033489;28;20174;-73
2021/01/23 11:33:15;;;;;;;3.07;2.30;;;3.90;99.90;;;;;;5033173;28;20258;-73
2021/01/23 11:35:42;;;;;;;3.30;2.70;;;3.90;99.90;;;;;;5033330;28;20602;-74
2021/01/23 11:38:07;;;;;;;2.70;2.30;;;3.80;99.90;;;;;;5033173;28;20185;-75
2021/01/23 11:40:33;;;;;;;3.03;2.83;;;3.80;99.90;;;;;;5032887;28;20232;-74
2021/01/23 11:42:58;;;;;;;2.73;2.53;;;4.00;99.90;;;;;;5032618;28;20198;-72
2021/01/23 11:45:25;;;;;;;3.20;2.90;;;3.90;99.90;;;;;;5033223;28;20174;-74
2021/01/23 11:47:51;;;;;;;4.37;3.20;;;4.00;99.90;;;;;;5015789;28;20259;-74
2021/01/23 11:50:16;;;;;;;3.20;2.90;;;4.00;99.90;;;;;;5033000;28;20658;-72
2021/01/23 11:52:42;;;;;;;3.13;2.83;;;4.10;99.90;;;;;;5032944;28;20224;-72
2021/01/23 11:55:08;;;;;;;2.90;2.70;;;4.10;99.90;;;;;;5032974;28;20174;-72
2021/01/23 11:57:35;;;;;;;3.50;3.20;;;4.10;99.90;;;;;;5034815;28;20206;-74
2021/01/23 12:00:02;;;;;;;3.53;3.23;;;3.90;99.90;;;;;;5034960;28;20179;-74
2021/01/23 12:02:28;;;;;;;3.90;3.50;;;3.70;99.90;;;;;;5015445;28;20201;-74
2021/01/23 12:04:53;;;;;;;5.87;4.03;;;3.60;99.90;;;;;;5032852;28;20170;-74
2021/01/23 12:07:20;;;;;;;3.83;3.53;;;3.60;99.90;;;;;;5033830;28;20731;-76
2021/01/23 12:09:46;;;;;;;3.80;3.37;;;3.70;99.90;;;;;;5036793;28;20168;-76
2021/01/23 12:12:12;;;;;;;4.30;3.20;;;3.80;99.90;;;;;;5020510;28;20737;-77
2021/01/23 12:14:38;;;;;;;3.40;3.10;;;3.80;99.90;;;;;;5036048;28;20641;-77
2021/01/23 12:17:07;;;;;;;3.27;2.83;;;4.00;99.90;;;;;;5036855;28;20202;-76
2021/01/23 12:19:33;;;;;;;4.13;3.53;;;4.10;99.90;;;;;;5034970;28;20197;-78
2021/01/23 12:21:59;;;;;;;5.00;3.33;;;4.20;99.90;;;;;;5037707;28;20198;-76
2021/01/23 12:24:24;;;;;;;4.10;3.53;;;4.30;99.90;;;;;;5032566;28;20183;-74
2021/01/23 12:26:50;;;;;;;3.20;3.00;;;4.30;99.90;;;;;;5051304;28;20197;-77
2021/01/23 12:29:15;;;;;;;3.23;2.90;;;4.30;99.90;;;;;;5019369;28;20183;-76
2021/01/23 12:31:41;;;;;;;3.73;2.80;;;4.40;99.90;;;;;;5036739;28;20202;-76
2021/01/23 12:34:08;;;;;;;3.33;3.03;;;4.50;99.90;;;;;;5036937;28;20211;-76
2021/01/23 12:36:34;;;;;;;3.33;3.03;;;4.50;99.90;;;;;;5040500;23;20240;-76
2021/01/23 12:38:59;;;;;;;2.80;2.60;;;4.50;99.90;;;;;;5054897;28;20634;-76
2021/01/23 12:41:25;;;;;;;6.33;2.83;;;4.50;99.90;;;;;;5056145;28;20195;-76
2021/01/23 12:43:51;;;;;;;3.50;3.00;;;4.50;99.90;;;;;;5055163;28;20174;-76
2021/01/23 12:46:17;;;;;;;3.43;3.13;;;4.30;99.90;;;;;;5055483;28;20195;-77
2021/01/23 12:48:42;;;;;;;3.80;3.50;;;4.30;99.90;;;;;;5042326;28;20169;-77
2021/01/23 12:51:08;;;;;;;3.80;3.10;;;4.20;99.90;;;;;;5039967;28;20527;-77
2021/01/23 12:53:34;;;;;;;4.80;4.27;;;4.20;99.90;;;;;;5054250;28;20181;-76
2021/01/23 12:55:59;;;;;;;3.80;3.50;;;4.10;99.90;;;;;;5054524;28;20188;-77
2021/01/23 12:58:25;;;;;;;4.40;3.67;;;4.20;99.90;;;;;;5056001;28;20689;-76
2021/01/23 13:00:51;;;;;;;4.40;3.20;;;4.30;99.90;;;;;;5055708;28;20521;-77
2021/01/23 13:03:16;;;;;;;3.63;3.33;;;4.30;99.90;;;;;;5055429;28;20272;-77
2021/01/23 13:05:42;;;;;;;4.10;3.07;;;4.30;99.90;;;;;;5055397;28;20174;-77
2021/01/23 13:08:08;;;;;;;4.97;3.37;;;4.40;99.90;;;;;;5055798;28;20229;-77
2021/01/23 13:10:34;;;;;;;3.43;3.13;;;4.40;99.90;;;;;;5054412;28;20605;-77
2021/01/23 13:13:00;;;;;;;3.37;3.07;;;4.40;99.90;;;;;;5052409;28;20178;-77
2021/01/23 13:15:25;;;;;;;3.40;3.10;;;4.40;99.90;;;;;;5055458;28;20261;-77
2021/01/23 13:17:51;;;;;;;3.40;2.90;;;4.50;99.90;;;;;;5050568;28;20198;-76
2021/01/23 13:20:17;;;;;;;2.97;2.77;;;4.50;99.90;;;;;;5055563;28;20204;-77
2021/01/23 13:22:42;;;;;;;3.50;3.20;;;4.50;99.90;;;;;;5053951;28;20195;-76
2021/01/23 13:25:09;;;;;;;4.27;3.17;;;4.50;99.90;;;;;;5055245;28;20178;-76
2021/01/23 13:27:40;;;;;;;3.13;2.70;;;4.50;99.90;;;;;;5050672;28;20313;-76
2021/01/23 13:30:07;;;;;;;3.47;2.93;;;4.50;99.90;;;;;;5055464;28;20177;-77
2021/01/23 13:32:33;;;;;;;2.60;2.40;;;4.50;99.90;;;;;;5044724;28;20177;-77
2021/01/23 13:34:59;;;;;;;3.47;3.17;;;4.50;99.90;;;;;;5051533;28;20564;-76
2021/01/23 13:37:24;;;;;;;5.43;4.00;;;4.50;99.90;;;;;;5053627;28;20223;-77
2021/01/23 13:39:50;;;;;;;7.40;3.60;;;4.50;99.90;;;;;;5054742;28;20632;-76
2021/01/23 13:42:15;;;;;;;4.30;3.43;;;4.50;99.90;;;;;;5054878;28;20197;-76
2021/01/23 13:44:43;;;;;;;3.10;2.87;;;4.50;99.90;;;;;;5054652;28;20683;-77
2021/01/23 13:47:09;;;;;;;2.93;2.73;;;4.50;99.90;;;;;;5054821;28;20206;-76
2021/01/23 13:49:35;;;;;;;3.93;3.60;;;4.50;99.90;;;;;;5055045;28;20174;-76
2021/01/23 13:52:00;;;;;;;3.80;3.50;;;4.60;99.90;;;;;;5054677;28;20652;-76
2021/01/23 13:54:26;;;;;;;13.90;12.50;;;4.70;99.90;;;;;;5054386;28;20206;-76
2021/01/23 13:56:52;;;;;;;3.00;2.70;;;4.60;99.90;;;;;;5054692;28;20672;-76
2021/01/23 13:59:18;;;;;;;2.40;2.20;;;4.60;99.90;;;;;;5053351;28;20705;-76
2021/01/23 14:01:43;;;;;;;8.17;6.57;;;4.70;99.90;;;;;;5053318;28;20282;-76
2021/01/23 14:04:09;;;;;;;2.57;2.30;;;4.60;99.90;;;;;;5054510;28;20172;-77
2021/01/23 14:06:35;;;;;;;2.33;2.13;;;4.60;99.90;;;;;;5054545;28;20664;-77